createdAt,value
2023-02-16T00:01:26.765Z,34.97
2023-02-16T00:03:58.064Z,38.87
2023-02-16T00:06:27.061Z,44.57
2023-02-16T00:08:57.878Z,40.40
2023-02-16T00:11:49.289Z,42.90
2023-02-16T00:14:17.618Z,41.17
2023-02-16T00:16:45.930Z,48.67
2023-02-16T00:19:24.948Z,43.80
2023-02-16T00:21:56.666Z,43.63
2023-02-16T00:24:25.683Z,44.57
2023-02-16T00:26:55.313Z,43.27
2023-02-16T00:29:27.277Z,46.27
2023-02-16T00:31:56.928Z,47.07
2023-02-16T00:34:35.197Z,47.30
2023-02-16T00:37:05.481Z,44.73
2023-02-16T00:39:34.394Z,46.97
2023-02-16T00:42:05.591Z,41.70
2023-02-16T00:44:37.454Z,48.23
2023-02-16T00:47:19.126Z,48.13
2023-02-16T00:49:50.022Z,46.77
2023-02-16T00:52:33.588Z,43.20
2023-02-16T00:55:03.959Z,41.80
2023-02-16T00:57:36.190Z,43.00
2023-02-16T01:00:14.258Z,47.23
2023-02-16T01:02:42.827Z,48.20
2023-02-16T01:05:13.584Z,49.43
2023-02-16T01:07:59.259Z,45.80
2023-02-16T01:10:46.940Z,45.20
2023-02-16T01:13:16.109Z,45.23
2023-02-16T01:15:44.790Z,44.13
2023-02-16T01:18:14.913Z,47.40
2023-02-16T01:20:45.141Z,46.83
2023-02-16T01:23:13.297Z,47.63
2023-02-16T01:25:42.322Z,40.93
2023-02-16T01:28:19.777Z,40.47
2023-02-16T01:30:47.877Z,44.23
2023-02-16T01:33:16.051Z,44.70
2023-02-16T01:35:46.894Z,43.63
2023-02-16T01:38:19.801Z,46.30
2023-02-16T01:40:56.870Z,46.87
2023-02-16T01:43:30.324Z,41.70
2023-02-16T01:46:04.051Z,43.33
2023-02-16T01:48:33.525Z,39.43
2023-02-16T01:51:08.541Z,45.63
2023-02-16T01:53:41.264Z,41.30
2023-02-16T01:56:21.355Z,45.53
2023-02-16T01:58:53.791Z,50.20
2023-02-16T02:01:50.338Z,44.20
2023-02-16T02:04:48.646Z,42.53
2023-02-16T02:07:25.562Z,50.07
2023-02-16T02:10:03.314Z,48.47
2023-02-16T02:12:41.609Z,43.97
2023-02-16T02:15:11.711Z,45.70
2023-02-16T02:17:40.382Z,43.70
2023-02-16T02:20:17.662Z,45.47
2023-02-16T02:23:34.241Z,44.87
2023-02-16T02:26:44.657Z,44.50
2023-02-16T02:29:56.166Z,42.97
2023-02-16T02:32:34.641Z,44.37
2023-02-16T02:35:15.392Z,47.55
2023-02-16T02:37:51.551Z,53.53
2023-02-16T02:40:31.631Z,46.07
2023-02-16T02:43:08.848Z,49.90
2023-02-16T02:45:45.990Z,47.00
2023-02-16T02:48:14.056Z,56.43
2023-02-16T02:51:04.513Z,51.20
2023-02-16T02:53:33.260Z,51.23
2023-02-16T02:56:21.366Z,53.07
2023-02-16T02:59:11.925Z,46.77
2023-02-16T03:01:45.248Z,46.73
2023-02-16T03:04:17.160Z,49.20
2023-02-16T03:06:50.164Z,53.27
2023-02-16T03:09:19.183Z,50.67
2023-02-16T03:12:08.654Z,52.03
2023-02-16T03:14:40.825Z,57.37
2023-02-16T03:17:31.633Z,51.53
2023-02-16T03:20:19.094Z,51.13
2023-02-16T03:23:04.901Z,51.97
2023-02-16T03:25:53.218Z,54.83
2023-02-16T03:28:42.030Z,57.53
2023-02-16T03:31:13.426Z,49.27
2023-02-16T03:33:44.018Z,48.37
2023-02-16T03:36:12.526Z,53.58
2023-02-16T03:38:40.996Z,50.97
2023-02-16T03:41:09.244Z,50.87
2023-02-16T03:43:38.878Z,53.40
2023-02-16T03:46:07.111Z,57.43
2023-02-16T03:48:35.276Z,60.93
2023-02-16T03:51:05.133Z,68.53
2023-02-16T03:53:33.520Z,65.63
2023-02-16T03:56:01.580Z,67.13
2023-02-16T03:58:29.669Z,59.57
2023-02-16T04:00:59.070Z,55.07
2023-02-16T04:03:27.322Z,70.27
2023-02-16T04:05:56.490Z,55.33
2023-02-16T04:08:26.168Z,59.23
2023-02-16T04:10:56.944Z,54.63
2023-02-16T04:13:24.007Z,56.50
2023-02-16T04:15:52.066Z,52.07
2023-02-16T04:18:20.149Z,55.73
2023-02-16T04:20:48.135Z,53.10
2023-02-16T04:23:16.178Z,53.63
2023-02-16T04:25:45.793Z,53.77
2023-02-16T04:28:14.259Z,52.93
2023-02-16T04:30:42.487Z,49.50
2023-02-16T04:33:10.863Z,52.83
2023-02-16T04:35:39.057Z,57.17
2023-02-16T04:38:07.138Z,54.50
2023-02-16T04:40:35.279Z,56.87
2023-02-16T04:43:05.498Z,55.63
2023-02-16T04:45:33.728Z,55.30
2023-02-16T04:48:01.728Z,49.27
2023-02-16T04:50:29.833Z,51.97
2023-02-16T04:52:57.996Z,50.57
2023-02-16T04:55:26.187Z,52.27
2023-02-16T04:57:54.436Z,57.97
2023-02-16T05:00:24.057Z,57.93
2023-02-16T05:02:52.202Z,51.87
2023-02-16T05:05:20.318Z,58.57
2023-02-16T05:07:48.303Z,58.90
2023-02-16T05:10:16.399Z,56.83
2023-02-16T05:13:01.971Z,60.13
2023-02-16T05:15:31.899Z,61.53
2023-02-16T05:17:59.945Z,63.47
2023-02-16T05:20:41.926Z,61.63
2023-02-16T05:23:10.060Z,58.07
2023-02-16T05:25:38.129Z,57.03
2023-02-16T05:28:06.543Z,59.13
2023-02-16T05:30:36.022Z,56.43
2023-02-16T05:33:04.092Z,58.13
2023-02-16T05:35:32.206Z,59.13
2023-02-16T05:38:00.283Z,67.23
2023-02-16T05:40:28.749Z,63.27
2023-02-16T05:42:57.104Z,169.53
2023-02-16T05:45:25.162Z,84.87
2023-02-16T05:47:54.732Z,69.23
2023-02-16T05:50:22.861Z,104.23
2023-02-16T05:52:50.914Z,87.13
2023-02-16T05:55:19.577Z,79.10
2023-02-16T05:57:47.961Z,80.30
2023-02-16T06:00:17.373Z,69.67
2023-02-16T06:02:45.660Z,74.33
2023-02-16T06:05:15.272Z,77.73
2023-02-16T06:07:43.387Z,76.43
2023-02-16T06:10:11.411Z,76.07
2023-02-16T06:12:39.515Z,72.37
2023-02-16T06:15:08.004Z,69.90
2023-02-16T06:17:36.187Z,72.53
2023-02-16T06:20:04.969Z,81.33
2023-02-16T06:22:34.517Z,74.23
2023-02-16T06:25:02.632Z,68.17
2023-02-16T06:27:31.429Z,67.27
2023-02-16T06:29:59.502Z,67.00
2023-02-16T06:32:27.938Z,57.83
2023-02-16T06:34:56.187Z,55.80
2023-02-16T06:37:25.492Z,52.67
2023-02-16T06:39:55.109Z,62.23
2023-02-16T06:42:23.183Z,65.80
2023-02-16T06:44:51.427Z,54.63
2023-02-16T06:47:19.508Z,49.63
2023-02-16T06:49:47.960Z,51.70
2023-02-16T06:52:16.261Z,56.10
2023-02-16T06:54:44.846Z,58.80
2023-02-16T06:57:14.257Z,55.47
2023-02-16T06:59:42.398Z,49.40
2023-02-16T07:02:12.897Z,56.30
2023-02-16T07:04:40.911Z,51.97
2023-02-16T07:07:09.377Z,50.37
2023-02-16T07:09:37.794Z,55.33
2023-02-16T07:12:07.359Z,53.97
2023-02-16T07:14:36.903Z,57.07
2023-02-16T07:17:05.014Z,53.67
2023-02-16T07:19:33.857Z,54.73
2023-02-16T07:22:02.723Z,57.95
2023-02-16T07:24:30.863Z,55.40
2023-02-16T07:26:59.009Z,53.90
2023-02-16T07:29:27.287Z,55.13
2023-02-16T07:31:57.861Z,57.47
2023-02-16T07:34:26.004Z,55.10
2023-02-16T07:36:54.080Z,55.22
2023-02-16T07:39:22.141Z,57.83
2023-02-16T07:41:50.903Z,53.13
2023-02-16T07:44:19.049Z,54.43
2023-02-16T07:46:47.711Z,49.77
2023-02-16T07:49:17.281Z,51.17
2023-02-16T07:51:45.416Z,46.07
2023-02-16T07:54:13.520Z,48.03
2023-02-16T07:56:41.645Z,49.10
2023-02-16T07:59:09.785Z,48.67
2023-02-16T08:01:40.091Z,46.20
2023-02-16T08:04:08.379Z,46.77
2023-02-16T08:06:38.121Z,42.57
2023-02-16T08:09:06.654Z,45.20
2023-02-16T08:11:34.787Z,39.90
2023-02-16T08:14:03.144Z,39.40
2023-02-16T08:16:31.563Z,40.23
2023-02-16T08:19:01.573Z,36.07
2023-02-16T08:21:31.646Z,35.10
2023-02-16T08:24:03.029Z,37.33
2023-02-16T08:26:35.563Z,43.27
2023-02-16T08:29:03.804Z,40.07
2023-02-16T08:31:35.288Z,44.17
2023-02-16T08:34:04.454Z,40.47
2023-02-16T08:36:34.696Z,45.07
2023-02-16T08:39:07.190Z,43.20
2023-02-16T08:41:38.068Z,40.30
2023-02-16T08:44:07.842Z,30.03
2023-02-16T08:46:37.491Z,36.80
2023-02-16T08:49:05.653Z,31.17
2023-02-16T08:51:35.967Z,31.17
2023-02-16T08:54:08.590Z,36.90
2023-02-16T08:56:37.207Z,34.40
2023-02-16T08:59:05.335Z,34.20
2023-02-16T09:01:33.576Z,34.57
2023-02-16T09:04:01.721Z,28.70
2023-02-16T09:06:30.428Z,34.90
2023-02-16T09:08:59.255Z,36.43
2023-02-16T09:11:28.860Z,35.27
2023-02-16T09:13:57.591Z,33.27
2023-02-16T09:16:28.135Z,32.67
2023-02-16T09:18:57.731Z,35.40
2023-02-16T09:21:27.025Z,31.07
2023-02-16T09:23:58.365Z,31.97
2023-02-16T09:26:29.346Z,28.00
2023-02-16T09:28:58.825Z,33.77
2023-02-16T09:31:29.429Z,32.00
2023-02-16T09:34:01.190Z,34.30
2023-02-16T09:36:29.789Z,32.87
2023-02-16T09:38:58.499Z,31.63
2023-02-16T09:41:37.612Z,31.50
2023-02-16T09:44:15.871Z,33.80
2023-02-16T09:46:44.486Z,34.37
2023-02-16T09:49:22.488Z,33.20
2023-02-16T09:51:55.570Z,32.70
2023-02-16T09:54:34.846Z,37.97
2023-02-16T09:57:13.612Z,35.43
2023-02-16T09:59:49.311Z,34.13
2023-02-16T10:02:45.901Z,34.60
2023-02-16T10:05:21.409Z,34.40
2023-02-16T10:07:58.864Z,33.00
2023-02-16T10:10:31.781Z,37.53
2023-02-16T10:13:06.248Z,34.47
2023-02-16T10:15:40.274Z,35.33
2023-02-16T10:18:15.298Z,37.97
2023-02-16T10:20:49.631Z,38.73
2023-02-16T10:23:38.253Z,34.60
2023-02-16T10:26:15.499Z,33.37
2023-02-16T10:28:48.320Z,35.13
2023-02-16T10:31:25.147Z,34.13
2023-02-16T10:34:08.280Z,35.03
2023-02-16T10:36:51.983Z,30.43
2023-02-16T10:39:25.929Z,31.03
2023-02-16T10:42:03.684Z,31.53
2023-02-16T10:44:40.382Z,28.43
2023-02-16T10:47:24.030Z,32.97
2023-02-16T10:49:53.138Z,30.00
2023-02-16T10:52:22.248Z,27.33
2023-02-16T10:54:51.014Z,28.00
2023-02-16T10:57:27.543Z,30.00
2023-02-16T11:00:00.824Z,26.50
2023-02-16T11:02:36.698Z,28.73
2023-02-16T11:05:36.106Z,27.20
2023-02-16T11:08:05.221Z,31.13
2023-02-16T11:10:40.503Z,26.70
2023-02-16T11:13:19.401Z,27.77
2023-02-16T11:15:54.972Z,29.40
2023-02-16T11:18:33.148Z,28.60
2023-02-16T11:21:03.536Z,26.70
2023-02-16T11:23:32.986Z,24.57
2023-02-16T11:26:04.220Z,23.20
2023-02-16T11:28:35.415Z,24.03
2023-02-16T11:31:17.914Z,26.63
2023-02-16T11:33:58.868Z,27.40
2023-02-16T11:36:33.819Z,24.57
2023-02-16T11:39:07.170Z,24.63
2023-02-16T11:41:36.939Z,25.97
2023-02-16T11:44:05.631Z,27.53
2023-02-16T11:46:42.599Z,23.73
2023-02-16T11:49:31.379Z,28.53
2023-02-16T11:52:00.813Z,26.67
2023-02-16T11:54:28.917Z,27.93
2023-02-16T11:57:08.538Z,25.57
2023-02-16T11:59:39.186Z,26.10
2023-02-16T12:02:35.192Z,25.67
2023-02-16T12:05:20.746Z,25.67
2023-02-16T12:08:06.596Z,27.40
2023-02-16T12:10:44.435Z,25.13
2023-02-16T12:13:23.426Z,27.03
2023-02-16T12:16:00.977Z,31.90
2023-02-16T12:18:38.986Z,26.83
2023-02-16T12:21:25.098Z,26.40
2023-02-16T12:24:05.055Z,23.43
2023-02-16T12:26:41.668Z,22.40
2023-02-16T12:29:25.018Z,24.63
2023-02-16T12:32:13.861Z,25.10
2023-02-16T12:34:58.844Z,23.67
2023-02-16T12:37:36.066Z,24.63
2023-02-16T12:40:19.125Z,23.97
2023-02-16T12:43:04.307Z,27.07
2023-02-16T12:45:37.630Z,23.27
2023-02-16T12:48:31.568Z,20.63
2023-02-16T12:51:04.964Z,25.20
2023-02-16T12:53:44.723Z,26.57
2023-02-16T12:56:19.523Z,26.87
2023-02-16T12:58:53.561Z,29.30
2023-02-16T13:01:26.171Z,26.50
2023-02-16T13:03:58.693Z,26.47
2023-02-16T13:06:34.105Z,29.77
2023-02-16T13:09:13.654Z,30.00
2023-02-16T13:11:48.062Z,25.40
2023-02-16T13:14:21.533Z,28.60
2023-02-16T13:16:57.108Z,27.30
2023-02-16T13:19:25.341Z,27.67
2023-02-16T13:22:24.424Z,29.93
2023-02-16T13:25:05.504Z,29.43
2023-02-16T13:27:46.747Z,27.73
2023-02-16T13:31:07.374Z,28.23
2023-02-16T13:33:51.817Z,30.63
2023-02-16T13:36:37.308Z,26.00
2023-02-16T13:39:32.173Z,29.43
2023-02-16T13:42:36.074Z,26.07
2023-02-16T13:45:11.788Z,24.33
2023-02-16T13:47:42.137Z,23.57
2023-02-16T13:50:28.221Z,28.17
2023-02-16T13:52:58.763Z,25.07
2023-02-16T13:55:32.246Z,22.90
2023-02-16T13:58:05.858Z,28.13
2023-02-16T14:00:38.323Z,26.17
2023-02-16T14:03:13.422Z,31.27
2023-02-16T14:05:43.917Z,25.07
2023-02-16T14:08:21.274Z,27.73
2023-02-16T14:11:21.844Z,26.30
2023-02-16T14:13:52.242Z,29.57
2023-02-16T14:16:34.618Z,26.00
2023-02-16T14:19:19.703Z,29.10
2023-02-16T14:21:50.440Z,28.00
2023-02-16T14:24:32.984Z,28.37
2023-02-16T14:27:04.251Z,30.77
2023-02-16T14:29:37.862Z,30.07
2023-02-16T14:32:18.315Z,23.40
2023-02-16T14:34:57.242Z,29.83
2023-02-16T14:37:36.894Z,30.37
2023-02-16T14:40:16.320Z,27.97
2023-02-16T14:43:05.012Z,29.27
2023-02-16T14:46:00.871Z,23.90
2023-02-16T14:48:53.115Z,27.27
2023-02-16T14:51:45.459Z,26.83
2023-02-16T14:54:49.643Z,27.20
2023-02-16T14:57:23.626Z,33.47
2023-02-16T14:59:58.300Z,38.87
2023-02-16T15:02:33.078Z,31.07
2023-02-16T15:05:18.004Z,28.07
2023-02-16T15:07:50.601Z,33.10
2023-02-16T15:10:26.861Z,24.93
2023-02-16T15:12:56.371Z,23.63
2023-02-16T15:15:33.281Z,30.88
2023-02-16T15:18:01.908Z,33.90
2023-02-16T15:20:34.214Z,31.60
2023-02-16T15:23:04.254Z,30.60
2023-02-16T15:25:35.214Z,28.20
2023-02-16T15:28:06.044Z,28.60
2023-02-16T15:30:37.091Z,32.40
2023-02-16T15:33:08.017Z,41.53
2023-02-16T15:35:39.214Z,28.47
2023-02-16T15:38:19.902Z,31.40
2023-02-16T15:40:49.101Z,35.40
2023-02-16T15:43:27.040Z,28.00
2023-02-16T15:45:56.530Z,31.23
2023-02-16T15:48:29.425Z,31.87
2023-02-16T15:51:02.754Z,29.70
2023-02-16T15:53:58.109Z,37.83
2023-02-16T15:56:39.337Z,24.93
2023-02-16T15:59:23.692Z,31.63
2023-02-16T16:02:00.578Z,34.03
2023-02-16T16:04:29.820Z,37.37
2023-02-16T16:07:00.117Z,45.43
2023-02-16T16:09:30.451Z,36.00
2023-02-16T16:12:01.099Z,33.30
2023-02-16T16:14:30.901Z,32.00
2023-02-16T16:17:21.155Z,33.10
2023-02-16T16:19:50.542Z,39.60
2023-02-16T16:22:33.161Z,38.50
2023-02-16T16:25:02.195Z,37.20
2023-02-16T16:27:32.601Z,35.60
2023-02-16T16:30:27.729Z,35.10
2023-02-16T16:33:07.748Z,34.40
2023-02-16T16:35:38.512Z,32.30
2023-02-16T16:38:10.338Z,33.33
2023-02-16T16:40:41.031Z,40.90
2023-02-16T16:43:17.670Z,39.60
2023-02-16T16:45:47.842Z,43.00
2023-02-16T16:48:21.644Z,53.37
2023-02-16T16:50:50.933Z,51.10
2023-02-16T16:53:45.375Z,56.00
2023-02-16T16:56:16.128Z,56.50
2023-02-16T16:58:44.922Z,69.27
2023-02-16T17:01:14.036Z,68.87
2023-02-16T17:03:43.910Z,68.50
2023-02-16T17:06:14.171Z,65.87
2023-02-16T17:08:42.930Z,69.17
2023-02-16T17:11:15.287Z,59.83
2023-02-16T17:13:43.867Z,56.30
2023-02-16T17:16:18.143Z,58.10
2023-02-16T17:18:47.671Z,79.73
2023-02-16T17:21:16.521Z,69.27
2023-02-16T17:23:52.546Z,69.03
2023-02-16T17:26:21.978Z,69.87
2023-02-16T17:28:50.426Z,119.40
2023-02-16T17:31:18.599Z,67.10
2023-02-16T17:33:48.288Z,70.60
2023-02-16T17:36:17.430Z,61.43
2023-02-16T17:38:46.286Z,77.43
2023-02-16T17:41:22.158Z,134.20
2023-02-16T17:43:50.576Z,114.03
2023-02-16T17:46:21.621Z,85.00
2023-02-16T17:48:53.582Z,86.03
2023-02-16T17:51:23.958Z,86.23
2023-02-16T17:53:53.543Z,77.87
2023-02-16T17:56:25.350Z,80.03
2023-02-16T17:58:54.707Z,76.90
2023-02-16T18:01:23.840Z,96.17
2023-02-16T18:03:55.177Z,371.40
2023-02-16T18:06:28.888Z,237.13
2023-02-16T18:08:57.476Z,187.87
2023-02-16T18:11:25.696Z,143.53
2023-02-16T18:13:54.051Z,129.97
2023-02-16T18:16:28.024Z,105.80
2023-02-16T18:19:01.019Z,129.40
2023-02-16T18:21:29.162Z,99.70
2023-02-16T18:23:57.331Z,100.80
2023-02-16T18:26:25.717Z,118.10
2023-02-16T18:28:53.981Z,119.90
2023-02-16T18:31:22.143Z,142.17
2023-02-16T18:33:51.244Z,99.33
2023-02-16T18:36:21.057Z,95.97
2023-02-16T18:38:49.773Z,81.37
2023-02-16T18:41:33.177Z,85.43
2023-02-16T18:44:01.597Z,90.40
2023-02-16T18:46:30.277Z,79.73
2023-02-16T18:48:58.718Z,72.80
2023-02-16T18:51:30.122Z,68.27
2023-02-16T18:53:58.611Z,82.97
2023-02-16T18:56:27.641Z,79.70
2023-02-16T18:58:59.398Z,77.47
2023-02-16T19:01:33.778Z,70.90
2023-02-16T19:04:03.543Z,57.60
2023-02-16T19:06:34.259Z,61.93
2023-02-16T19:09:04.163Z,60.80
2023-02-16T19:11:33.504Z,56.30
2023-02-16T19:14:02.310Z,61.60
2023-02-16T19:16:31.119Z,59.33
2023-02-16T19:19:03.635Z,71.83
2023-02-16T19:21:34.072Z,56.97
2023-02-16T19:24:04.217Z,52.60
2023-02-16T19:26:33.448Z,58.27
2023-02-16T19:29:06.797Z,50.43
2023-02-16T19:31:36.001Z,50.83
2023-02-16T19:34:04.669Z,55.60
2023-02-16T19:36:36.512Z,52.80
2023-02-16T19:39:05.987Z,47.93
2023-02-16T19:41:37.687Z,52.67
2023-02-16T19:44:07.311Z,47.70
2023-02-16T19:46:38.385Z,49.03
2023-02-16T19:49:07.450Z,46.83
2023-02-16T19:51:37.232Z,50.03
2023-02-16T19:54:05.524Z,48.07
2023-02-16T19:56:33.730Z,48.20
2023-02-16T19:59:02.743Z,57.43
2023-02-16T20:01:31.023Z,59.77
2023-02-16T20:04:00.316Z,58.73
2023-02-16T20:06:32.314Z,59.30
2023-02-16T20:09:02.394Z,50.80
2023-02-16T20:11:31.326Z,54.53
2023-02-16T20:13:59.972Z,58.37
2023-02-16T20:16:30.522Z,55.03
2023-02-16T20:18:59.242Z,60.60
2023-02-16T20:21:29.630Z,52.70
2023-02-16T20:24:00.083Z,55.43
2023-02-16T20:26:34.456Z,57.17
2023-02-16T20:29:03.663Z,60.10
2023-02-16T20:31:37.536Z,58.70
2023-02-16T20:34:07.402Z,65.47
2023-02-16T20:36:36.008Z,68.13
2023-02-16T20:39:05.400Z,63.20
2023-02-16T20:41:35.000Z,59.03
2023-02-16T20:44:03.900Z,62.37
2023-02-16T20:46:32.471Z,65.07
2023-02-16T20:49:00.696Z,67.20
2023-02-16T20:51:28.907Z,65.10
2023-02-16T20:53:57.076Z,54.90
2023-02-16T20:56:26.839Z,50.50
2023-02-16T20:58:58.607Z,50.50
2023-02-16T21:01:29.584Z,52.47
2023-02-16T21:03:58.853Z,55.07
2023-02-16T21:06:28.519Z,55.67
2023-02-16T21:08:56.908Z,50.97
2023-02-16T21:11:25.636Z,49.97
2023-02-16T21:13:53.778Z,44.43
2023-02-16T21:16:23.735Z,42.77
2023-02-16T21:18:52.384Z,43.43
2023-02-16T21:21:20.554Z,39.10
2023-02-16T21:23:51.261Z,45.67
2023-02-16T21:26:21.245Z,38.93
2023-02-16T21:28:50.305Z,40.73
2023-02-16T21:31:20.866Z,47.87
2023-02-16T21:33:51.102Z,40.33
2023-02-16T21:36:21.051Z,44.67
2023-02-16T21:38:49.826Z,44.50
2023-02-16T21:41:25.778Z,39.27
2023-02-16T21:43:55.927Z,37.30
2023-02-16T21:46:24.274Z,36.30
2023-02-16T21:48:52.754Z,34.67
2023-02-16T21:51:22.298Z,42.23
2023-02-16T21:53:50.410Z,41.80
2023-02-16T21:56:29.353Z,44.00
2023-02-16T21:58:57.559Z,51.30
2023-02-16T22:01:28.761Z,48.10
2023-02-16T22:04:00.386Z,53.87
2023-02-16T22:06:32.269Z,50.87
2023-02-16T22:09:00.854Z,52.33
2023-02-16T22:11:29.154Z,58.30
2023-02-16T22:13:59.090Z,63.10
2023-02-16T22:16:29.616Z,63.67
2023-02-16T22:19:00.557Z,68.10
2023-02-16T22:21:29.825Z,59.80
2023-02-16T22:24:00.845Z,68.03
2023-02-16T22:26:31.226Z,65.03
2023-02-16T22:28:59.957Z,66.97
2023-02-16T22:31:29.040Z,72.60
2023-02-16T22:33:59.294Z,69.57
2023-02-16T22:36:28.022Z,67.83
2023-02-16T22:38:56.553Z,75.53
2023-02-16T22:41:26.075Z,78.90
2023-02-16T22:43:55.533Z,77.53
2023-02-16T22:46:25.401Z,75.37
2023-02-16T22:48:53.708Z,76.90
2023-02-16T22:51:23.325Z,75.90
2023-02-16T22:53:51.528Z,76.30
2023-02-16T22:56:20.937Z,77.03
2023-02-16T22:58:49.200Z,76.03
2023-02-16T23:01:19.427Z,84.23
2023-02-16T23:03:48.824Z,82.87
2023-02-16T23:06:19.835Z,80.50
2023-02-16T23:08:53.766Z,80.70
2023-02-16T23:11:22.216Z,76.87
2023-02-16T23:13:50.588Z,89.77
2023-02-16T23:16:21.015Z,72.80
2023-02-16T23:18:50.266Z,81.03
2023-02-16T23:21:20.245Z,73.63
2023-02-16T23:23:51.320Z,70.53
2023-02-16T23:26:20.869Z,78.27
2023-02-16T23:28:51.887Z,75.63
2023-02-16T23:31:20.505Z,80.43
2023-02-16T23:33:49.499Z,82.03
2023-02-16T23:36:17.961Z,82.00
2023-02-16T23:38:46.038Z,85.90
2023-02-16T23:41:16.492Z,86.00
2023-02-16T23:43:44.574Z,80.40
2023-02-16T23:46:12.941Z,75.80
2023-02-16T23:48:40.966Z,76.87
2023-02-16T23:51:11.721Z,68.30
2023-02-16T23:53:40.547Z,68.33
2023-02-16T23:56:10.226Z,70.03
2023-02-16T23:58:42.317Z,57.20
